GCRRGCFV

Guest
Details From GCRR - Lanzarote
To GCFV - Fuerteventura
Flight Number -
Tags generated
Created
Modified
Stats Distance 33 nm / 61 km
Max Altitude 200 ft / 61 m
Waypoints 3
Social Downloads 6
Likes 1
Share VATSIM

Download

Looking for another format? Having issues loading an existing format? Contact us
Advertisement - Login to hide

Notes

Basic altitude profile: - Ascent Rate: 2500ft/min - Ascent Speed: 250kts - Cruise Altitude: 35000ft - Cruise Speed: 420kts - Descent Rate: 1500ft/min - Descent Speed: 250kts Options: - Use NATs: yes - Use PACOTS: yes - Use low airways: yes - Use high airways: yes

Route

GCRR LTE GCFV

ID Type Via Altitude (ft/m) Position (lat/lon) Dist (leg/tot) Name
O GCRR APT - 0 / 0 28.94547 / -13.60522 - / 0 nm Lanzarote
LTE VOR - 200 / 61 28.94188 / -13.61643 0 / 0 nm LANZAROTE VOR-DME
O GCFV APT - 0 / 0 28.44788 / -13.86489 32 / 33 nm Fuerteventura

Altitude Profile

Advertisement - Login to hide

GCRR

Details ICAO GCRR (ACE)
Name Lanzarote Airport
Region Canary Islands
Timezone Atlantic/Canary (UTC+1.0)
Stats Elevation 0 ft / 0 m (AMSL)
Location 28.945500° -13.605200°
Runways 1
Magnetic Variation 3.880° W

METAR

GCRR 170000Z 36009KT 330V030 9999 FEW035 BKN040 23/15 Q1019

Decode

TAF

TAF GCRR 162000Z 1621/1721 36007KT 9999 SCT030 TX28/1715Z TN21/1705Z

Decode

Departure Runways

ID Width Length Bearing (true/mag) Surface Threshold Overrun Markings Lighting
03 148 ft / 45 m 7,881 ft / 2,402 m 26.90° / 30.78° ASPHALT 0 ft / 0 m 226 ft / 69 m PREC-APP CENTERLINE EDGE THRESHOLD MALSF
21 148 ft / 45 m 7,881 ft / 2,402 m 206.91° / 210.79° ASPHALT 0 ft / 0 m 479 ft / 146 m PREC-APP CENTERLINE EDGE THRESHOLD MALSF

GCFV

Details ICAO GCFV (FUE)
Name Fuerteventura Airport
Region Canary Islands
Timezone Atlantic/Canary (UTC+1.0)
Stats Elevation 83 ft / 25 m (AMSL)
Location 28.448200° -13.863900°
Runways 1
Magnetic Variation 4.002° W

METAR

GCFV 170000Z AUTO 36014KT 9999 OVC040 23/14 Q1019

Decode

TAF

TAF GCFV 162000Z 1621/1721 36010KT 9999 SCT030 TX27/1715Z TN21/1705Z

Decode

Destination Runways

ID Width Length Bearing (true/mag) Surface Threshold Overrun Markings Lighting
01 148 ft / 45 m 11,185 ft / 3,409 m 1.66° / 5.66° ASPHALT 3,274 ft / 998 m 0 ft / 0 m PREC-APP CENTERLINE EDGE THRESHOLD CALVERT-ILS TDZ REIL-OMNI
19 148 ft / 45 m 11,185 ft / 3,409 m 181.66° / 185.66° ASPHALT 1,506 ft / 459 m 0 ft / 0 m PREC-APP CENTERLINE EDGE THRESHOLD CALVERT-ILS TDZ REIL-OMNI

Approach Navaids

Runway Type Ident Frequency Range Bearing (true/mag) Slope Elevation
01 LOC-ILS IFV 109.50 MHz 18 nm / 33 km 1.66° / 5.66 ° - 83 ft / 25 m (AMSL)
01 GS IFV 109.50 MHz 10 nm / 19 km 1.66° / 5.66 ° 3.00° 83 ft / 25 m (AMSL)
19 GS IFA 111.30 MHz 10 nm / 19 km 181.66° / 185.66 ° 3.45° 83 ft / 25 m (AMSL)
19 LOC-ILS IFA 111.30 MHz 18 nm / 33 km 181.66° / 185.66 ° - 83 ft / 25 m (AMSL)

Popular Alternatives